Time;durP1;ratioP1;P1;durP2;ratioP2;P2;SDS_P1;SDS_P2;PMS_P1;PMS_P2;Temp;Humidity;BMP_temperature;BMP_pressure;BME280_temperature;BME280_humidity;BME280_pressure;Samples;Min_cycle;Max_cycle;Signal;HPM_P1;HPM_P2
2021/11/05 00:00:03;;;;;;;15.40;13.17;;;5.40;99.90;;;;;;5057102;28;20180;-78
2021/11/05 00:02:29;;;;;;;7.57;6.87;;;5.30;99.90;;;;;;5038994;28;20189;-79
2021/11/05 00:04:56;;;;;;;6.47;5.87;;;5.20;99.90;;;;;;5057233;28;20170;-79
2021/11/05 00:07:22;;;;;;;15.07;11.90;;;5.20;99.90;;;;;;5057117;28;20262;-79
2021/11/05 00:09:47;;;;;;;7.67;6.97;;;5.10;99.90;;;;;;5057037;28;20696;-79
2021/11/05 00:12:13;;;;;;;8.30;7.30;;;5.00;99.90;;;;;;5039013;28;20164;-79
2021/11/05 00:14:39;;;;;;;7.00;6.40;;;5.10;99.90;;;;;;5057011;28;20202;-79
2021/11/05 00:17:05;;;;;;;8.23;7.53;;;5.10;99.90;;;;;;5038530;28;20183;-79
2021/11/05 00:19:31;;;;;;;7.40;6.70;;;5.20;99.90;;;;;;5056630;28;20199;-78
2021/11/05 00:21:56;;;;;;;8.93;8.13;;;5.10;99.90;;;;;;5056670;28;20179;-79
2021/11/05 00:24:22;;;;;;;9.77;8.30;;;5.20;99.90;;;;;;5056307;28;20194;-79
2021/11/05 00:26:48;;;;;;;10.23;9.23;;;5.10;99.90;;;;;;5056556;28;20191;-79
2021/11/05 00:29:14;;;;;;;9.63;8.73;;;5.10;99.90;;;;;;5056726;28;20203;-79
2021/11/05 00:31:39;;;;;;;8.77;8.00;;;5.20;99.90;;;;;;5056266;28;20182;-79
2021/11/05 00:34:05;;;;;;;9.00;8.20;;;5.20;99.90;;;;;;5038759;28;20282;-79
2021/11/05 00:36:31;;;;;;;9.37;8.47;;;5.10;99.90;;;;;;5055151;28;20175;-79
2021/11/05 00:38:56;;;;;;;17.87;13.27;;;5.30;99.90;;;;;;5036592;28;20184;-79
2021/11/05 00:41:22;;;;;;;12.23;11.03;;;5.20;99.90;;;;;;5056053;28;20533;-78
2021/11/05 00:43:48;;;;;;;8.70;8.00;;;5.20;99.90;;;;;;5038010;28;20244;-79
2021/11/05 00:46:13;;;;;;;9.00;8.20;;;5.20;99.90;;;;;;5055872;28;20173;-79
2021/11/05 00:48:39;;;;;;;10.70;9.20;;;5.20;99.90;;;;;;5037950;28;20794;-79
2021/11/05 00:51:05;;;;;;;10.17;9.23;;;5.20;99.90;;;;;;5055814;28;20699;-79
2021/11/05 00:53:31;;;;;;;8.93;8.03;;;5.20;99.90;;;;;;5055510;28;20230;-79
2021/11/05 00:55:56;;;;;;;9.53;8.63;;;5.10;99.90;;;;;;5055952;28;20557;-78
2021/11/05 00:58:22;;;;;;;8.60;7.80;;;5.10;99.90;;;;;;5055818;28;20204;-79
2021/11/05 01:00:48;;;;;;;9.77;8.87;;;5.20;99.90;;;;;;5056032;28;20175;-79
2021/11/05 01:03:14;;;;;;;8.87;8.07;;;5.20;99.90;;;;;;5038229;28;20200;-79
2021/11/05 01:05:39;;;;;;;10.13;9.13;;;5.20;99.90;;;;;;5037414;28;20182;-78
2021/11/05 01:08:06;;;;;;;9.90;9.07;;;5.20;99.90;;;;;;5037823;28;20174;-78
2021/11/05 01:10:35;;;;;;;10.30;9.40;;;5.30;99.90;;;;;;5055403;28;20171;-78
2021/11/05 01:13:05;;;;;;;11.10;10.03;;;5.30;99.90;;;;;;5037412;28;20205;-79
2021/11/05 01:15:31;;;;;;;11.07;10.07;;;5.40;99.90;;;;;;5055611;28;20168;-79
2021/11/05 01:17:57;;;;;;;11.13;10.13;;;5.40;99.90;;;;;;5055916;28;20178;-79
2021/11/05 01:20:23;;;;;;;11.33;10.23;;;5.40;99.90;;;;;;5056108;28;20198;-79
2021/11/05 01:22:48;;;;;;;11.23;10.13;;;5.50;99.90;;;;;;5055402;28;20285;-79
2021/11/05 01:25:15;;;;;;;12.27;11.10;;;5.50;99.90;;;;;;5055893;28;20182;-79
2021/11/05 01:27:46;;;;;;;12.93;10.73;;;5.50;99.90;;;;;;5055297;28;20163;-79
2021/11/05 01:30:14;;;;;;;11.70;10.67;;;5.60;99.90;;;;;;5054854;28;20221;-79
2021/11/05 01:32:39;;;;;;;11.40;10.40;;;5.50;99.90;;;;;;5037302;28;20193;-79
2021/11/05 01:35:06;;;;;;;11.90;10.80;;;5.50;99.90;;;;;;5055559;28;20659;-78
2021/11/05 01:37:32;;;;;;;12.33;10.67;;;5.50;99.90;;;;;;5055291;28;20170;-79
2021/11/05 01:39:57;;;;;;;11.37;10.27;;;5.40;99.90;;;;;;5038091;28;20658;-79
2021/11/05 01:42:24;;;;;;;12.30;11.00;;;5.40;99.90;;;;;;5037315;28;20190;-80
2021/11/05 01:44:50;;;;;;;11.13;10.13;;;5.40;99.90;;;;;;5055024;28;20868;-78
2021/11/05 01:47:18;;;;;;;12.60;10.67;;;5.40;99.90;;;;;;5055035;28;20257;-79
2021/11/05 01:49:44;;;;;;;11.50;10.50;;;5.30;99.90;;;;;;5038129;28;20247;-79
2021/11/05 01:52:10;;;;;;;12.10;10.90;;;5.40;99.90;;;;;;5055545;28;20168;-79
2021/11/05 01:54:36;;;;;;;12.60;11.40;;;5.30;99.90;;;;;;5055505;28;20233;-79
2021/11/05 01:57:02;;;;;;;13.37;12.13;;;5.30;99.90;;;;;;5037658;28;20177;-78
2021/11/05 01:59:30;;;;;;;12.00;10.90;;;5.30;99.90;;;;;;5037109;28;20194;-79
2021/11/05 02:01:58;;;;;;;12.33;11.07;;;5.30;99.90;;;;;;5054857;28;20188;-78
2021/11/05 02:04:24;;;;;;;11.90;10.80;;;5.30;99.90;;;;;;5036993;28;20613;-79
2021/11/05 02:06:51;;;;;;;12.33;11.13;;;5.20;99.90;;;;;;5055077;28;20175;-78
2021/11/05 02:09:19;;;;;;;13.60;12.20;;;5.20;99.90;;;;;;5037504;28;20679;-79
2021/11/05 02:11:46;;;;;;;13.10;11.80;;;5.10;99.90;;;;;;5038187;28;20258;-79
2021/11/05 02:14:18;;;;;;;11.00;10.00;;;5.10;99.90;;;;;;5054990;28;20202;-79
2021/11/05 02:16:46;;;;;;;9.90;8.90;;;5.10;99.90;;;;;;5037439;28;20171;-78
2021/11/05 02:19:14;;;;;;;10.30;9.40;;;5.00;99.90;;;;;;5054631;28;20656;-79
2021/11/05 02:21:45;;;;;;;9.93;8.87;;;4.90;99.90;;;;;;5055119;28;20179;-79
2021/11/05 02:24:13;;;;;;;9.80;8.93;;;4.80;99.90;;;;;;5054200;28;20269;-79
2021/11/05 02:26:39;;;;;;;11.27;10.07;;;4.70;99.90;;;;;;5054805;28;20353;-78
2021/11/05 02:29:05;;;;;;;13.87;9.67;;;4.70;99.90;;;;;;5036878;28;20191;-79
2021/11/05 02:31:32;;;;;;;11.57;10.37;;;4.50;99.90;;;;;;5053714;28;20170;-78
2021/11/05 02:33:58;;;;;;;14.53;11.70;;;4.60;99.90;;;;;;5050955;28;20182;-78
2021/11/05 02:36:24;;;;;;;12.03;10.67;;;4.50;99.90;;;;;;5054884;28;20205;-79
2021/11/05 02:38:50;;;;;;;12.63;11.30;;;4.40;99.90;;;;;;5054270;28;20170;-79
2021/11/05 02:41:16;;;;;;;11.67;10.57;;;4.40;99.90;;;;;;5054366;28;20171;-79
2021/11/05 02:43:41;;;;;;;11.80;10.70;;;4.30;99.90;;;;;;5057686;28;20204;-79
2021/11/05 02:46:07;;;;;;;12.03;10.93;;;4.30;99.90;;;;;;5040170;28;20179;-78
2021/11/05 02:48:33;;;;;;;13.90;12.33;;;4.40;99.90;;;;;;5058718;28;20202;-78
2021/11/05 02:50:59;;;;;;;12.73;11.43;;;4.40;99.90;;;;;;5056194;28;20550;-79
2021/11/05 02:53:26;;;;;;;12.77;11.13;;;4.40;99.90;;;;;;5056674;28;20216;-78
2021/11/05 02:55:51;;;;;;;13.93;11.77;;;4.40;99.90;;;;;;5051704;28;20594;-78
2021/11/05 02:58:17;;;;;;;14.07;11.70;;;4.50;99.90;;;;;;5056403;28;20210;-78
2021/11/05 03:00:45;;;;;;;12.57;11.23;;;4.40;99.90;;;;;;5039086;28;20166;-78
2021/11/05 03:03:15;;;;;;;12.80;11.53;;;4.40;99.90;;;;;;5056879;28;20199;-79
2021/11/05 03:05:41;;;;;;;12.87;11.57;;;4.50;99.90;;;;;;5058476;28;20248;-78
2021/11/05 03:08:07;;;;;;;13.97;11.97;;;4.50;99.90;;;;;;5040163;28;20589;-79
2021/11/05 03:10:34;;;;;;;12.50;11.20;;;4.60;99.90;;;;;;5057567;28;20564;-79
2021/11/05 03:13:00;;;;;;;13.17;11.77;;;4.60;99.90;;;;;;5036199;28;20571;-79
2021/11/05 03:15:26;;;;;;;16.50;13.50;;;4.70;99.90;;;;;;5054063;28;20180;-77
2021/11/05 03:17:53;;;;;;;15.87;13.87;;;4.80;99.90;;;;;;5055926;28;20194;-77
2021/11/05 03:20:20;;;;;;;20.93;14.93;;;4.80;99.90;;;;;;5043207;28;20186;-77
2021/11/05 03:22:46;;;;;;;18.10;15.47;;;4.90;99.90;;;;;;5061752;28;20218;-77
2021/11/05 03:25:12;;;;;;;17.57;14.93;;;5.00;99.90;;;;;;5042229;28;20180;-77
2021/11/05 03:27:38;;;;;;;16.17;14.47;;;4.90;99.90;;;;;;5057636;28;20184;-77
2021/11/05 03:30:06;;;;;;;16.33;14.63;;;5.10;99.90;;;;;;5055647;28;20197;-77
2021/11/05 03:32:32;;;;;;;16.37;14.67;;;5.10;99.90;;;;;;5050108;28;20164;-77
2021/11/05 03:34:57;;;;;;;15.90;14.20;;;5.10;99.90;;;;;;5038176;28;20175;-77
2021/11/05 03:37:23;;;;;;;19.87;13.97;;;5.10;99.90;;;;;;5055607;28;20321;-78
2021/11/05 03:39:49;;;;;;;16.87;14.33;;;5.10;99.90;;;;;;5055535;28;20511;-78
2021/11/05 03:42:14;;;;;;;18.57;15.00;;;5.20;99.90;;;;;;5037542;28;20175;-78
2021/11/05 03:44:40;;;;;;;18.03;14.27;;;5.10;99.90;;;;;;5059177;28;20200;-77
2021/11/05 03:47:06;;;;;;;15.97;14.23;;;5.20;99.90;;;;;;5055139;28;20165;-76
2021/11/05 03:49:31;;;;;;;19.90;14.03;;;5.20;99.90;;;;;;5038086;28;20199;-78
2021/11/05 03:51:57;;;;;;;17.67;14.77;;;5.20;99.90;;;;;;5055342;28;20260;-78
2021/11/05 03:54:24;;;;;;;17.17;14.27;;;5.40;99.90;;;;;;5054707;28;20215;-78
2021/11/05 03:56:50;;;;;;;18.13;15.37;;;5.30;99.90;;;;;;5054933;28;20524;-78
2021/11/05 03:59:17;;;;;;;18.00;14.80;;;5.20;99.90;;;;;;5037411;28;20223;-78
2021/11/05 04:01:43;;;;;;;20.40;14.53;;;5.30;99.90;;;;;;5055211;28;20171;-78
2021/11/05 04:04:10;;;;;;;17.30;15.27;;;5.30;99.90;;;;;;5054894;28;20200;-78
2021/11/05 04:06:36;;;;;;;20.70;14.63;;;5.30;99.90;;;;;;5055063;28;20522;-77
2021/11/05 04:09:02;;;;;;;17.27;13.80;;;5.20;99.90;;;;;;5055079;28;20209;-78
2021/11/05 04:11:27;;;;;;;16.87;14.33;;;5.20;99.90;;;;;;5055035;28;20182;-78
2021/11/05 04:13:53;;;;;;;16.70;14.90;;;5.20;99.90;;;;;;5036713;28;20275;-78
2021/11/05 04:16:19;;;;;;;17.30;15.47;;;5.20;99.90;;;;;;5055179;28;20224;-78
2021/11/05 04:18:44;;;;;;;18.83;14.70;;;5.10;99.90;;;;;;5036806;28;20548;-77
2021/11/05 04:21:10;;;;;;;15.50;13.90;;;5.20;99.90;;;;;;5036633;28;20235;-77
2021/11/05 04:23:36;;;;;;;18.73;15.30;;;5.30;99.90;;;;;;5055142;28;20202;-77
2021/11/05 04:26:03;;;;;;;16.20;14.50;;;5.30;99.90;;;;;;5054843;28;20168;-78
2021/11/05 04:28:29;;;;;;;16.17;14.07;;;5.30;99.90;;;;;;5036883;28;20201;-77
2021/11/05 04:30:55;;;;;;;15.83;14.23;;;5.30;99.90;;;;;;5054465;28;20264;-78
2021/11/05 04:33:20;;;;;;;15.57;13.33;;;5.40;99.90;;;;;;5054810;28;20202;-78
2021/11/05 04:35:47;;;;;;;16.50;14.17;;;5.30;99.90;;;;;;5054686;28;20524;-77
2021/11/05 04:38:13;;;;;;;16.13;14.37;;;5.30;99.90;;;;;;5051323;28;20172;-77
2021/11/05 04:40:39;;;;;;;16.53;14.67;;;5.30;99.90;;;;;;5054485;28;20676;-77
2021/11/05 04:43:05;;;;;;;18.43;15.00;;;5.20;99.90;;;;;;5054565;28;20249;-78
2021/11/05 04:45:31;;;;;;;18.07;15.37;;;5.10;99.90;;;;;;5036616;28;20179;-78
2021/11/05 04:47:57;;;;;;;16.17;14.33;;;5.20;99.90;;;;;;5054335;28;20174;-78
2021/11/05 04:50:23;;;;;;;16.80;14.93;;;5.20;99.90;;;;;;5054361;28;20201;-78
2021/11/05 04:52:48;;;;;;;19.07;15.13;;;5.20;99.90;;;;;;5053834;28;20398;-78
2021/11/05 04:55:17;;;;;;;18.07;14.43;;;5.30;99.90;;;;;;5036218;28;20178;-77
2021/11/05 04:57:43;;;;;;;17.00;15.20;;;5.30;99.90;;;;;;5054193;28;20509;-78
2021/11/05 05:00:10;;;;;;;18.90;15.53;;;5.30;99.90;;;;;;5053663;28;20176;-76
2021/11/05 05:02:36;;;;;;;18.10;15.63;;;5.30;99.90;;;;;;5052175;28;20181;-78
2021/11/05 05:05:02;;;;;;;16.87;15.07;;;5.30;99.90;;;;;;5033882;28;20172;-78
2021/11/05 05:07:28;;;;;;;18.53;15.40;;;5.20;99.90;;;;;;5035548;28;20542;-78
2021/11/05 05:09:54;;;;;;;18.83;15.93;;;5.20;99.90;;;;;;5053140;28;20190;-78
2021/11/05 05:12:20;;;;;;;19.07;15.67;;;5.30;99.90;;;;;;5053299;28;20166;-77
2021/11/05 05:14:46;;;;;;;17.60;15.47;;;5.30;99.90;;;;;;5053474;28;20167;-77
2021/11/05 05:17:11;;;;;;;22.53;17.50;;;5.30;99.90;;;;;;5035543;28;20168;-77
2021/11/05 05:19:37;;;;;;;20.20;15.33;;;5.40;99.90;;;;;;5053749;28;20177;-77
2021/11/05 05:22:03;;;;;;;16.33;14.30;;;5.40;99.90;;;;;;5053523;28;20517;-77
2021/11/05 05:24:29;;;;;;;20.70;15.20;;;5.30;99.90;;;;;;5053424;28;20212;-77
2021/11/05 05:26:55;;;;;;;17.97;14.77;;;5.20;99.90;;;;;;5035657;28;20257;-77
2021/11/05 05:29:22;;;;;;;18.10;14.27;;;5.20;99.90;;;;;;5053535;28;20196;-77
2021/11/05 05:31:48;;;;;;;18.30;16.07;;;5.30;99.90;;;;;;5053584;28;20173;-77
2021/11/05 05:34:14;;;;;;;20.83;17.37;;;5.30;99.90;;;;;;5035816;28;20206;-77
2021/11/05 05:36:40;;;;;;;19.30;15.90;;;5.30;99.90;;;;;;5053424;28;20262;-77
2021/11/05 05:39:05;;;;;;;19.83;15.97;;;5.30;99.90;;;;;;5053739;28;20203;-77
2021/11/05 05:41:31;;;;;;;21.87;16.77;;;5.40;99.90;;;;;;5037270;28;20172;-77
2021/11/05 05:43:57;;;;;;;22.50;17.33;;;5.40;99.90;;;;;;5041521;28;20203;-77
2021/11/05 05:46:22;;;;;;;19.80;15.93;;;5.40;99.90;;;;;;5043136;28;20187;-77
2021/11/05 05:48:48;;;;;;;21.90;16.90;;;5.40;99.90;;;;;;5040872;28;20197;-77
2021/11/05 05:51:14;;;;;;;20.57;15.77;;;5.40;99.90;;;;;;5041530;28;20520;-77
2021/11/05 05:53:39;;;;;;;20.07;16.37;;;5.50;99.90;;;;;;5062192;28;20294;-77
2021/11/05 05:56:06;;;;;;;20.50;15.57;;;5.50;99.90;;;;;;5063230;28;20211;-77
2021/11/05 05:58:32;;;;;;;18.17;15.53;;;5.50;99.90;;;;;;5053681;28;20167;-77
2021/11/05 06:00:58;;;;;;;18.73;16.10;;;5.50;99.90;;;;;;5035647;28;20183;-77
2021/11/05 06:03:23;;;;;;;24.70;16.30;;;5.50;99.90;;;;;;5053378;28;20286;-77
2021/11/05 06:05:49;;;;;;;17.63;15.07;;;5.60;99.90;;;;;;5055851;28;20517;-77
2021/11/05 06:08:15;;;;;;;16.90;14.70;;;5.60;99.90;;;;;;5036074;28;20180;-77
2021/11/05 06:10:44;;;;;;;17.23;14.50;;;5.60;99.90;;;;;;5035530;28;20172;-77
2021/11/05 06:13:10;;;;;;;18.57;15.23;;;5.60;99.90;;;;;;5053355;28;20560;-77
2021/11/05 06:15:35;;;;;;;17.90;15.43;;;5.60;99.90;;;;;;5053413;28;20187;-77
2021/11/05 06:18:02;;;;;;;18.47;15.60;;;5.60;99.90;;;;;;5055694;28;20171;-76
2021/11/05 06:20:27;;;;;;;21.23;15.90;;;5.60;99.90;;;;;;5057549;28;20169;-77
2021/11/05 06:22:53;;;;;;;19.23;16.43;;;5.60;99.90;;;;;;5056904;28;20196;-77
2021/11/05 06:25:19;;;;;;;17.50;15.03;;;5.60;99.90;;;;;;5048149;28;20557;-78
2021/11/05 06:27:45;;;;;;;17.47;15.60;;;5.60;99.90;;;;;;5038787;28;20267;-77
2021/11/05 06:30:12;;;;;;;18.37;14.70;;;5.60;99.90;;;;;;5055699;28;20202;-77
2021/11/05 06:32:38;;;;;;;16.93;15.20;;;5.60;99.90;;;;;;5038678;28;20209;-77
2021/11/05 06:35:05;;;;;;;16.43;14.80;;;5.60;99.90;;;;;;5056699;28;20175;-78
2021/11/05 06:37:31;;;;;;;17.07;14.63;;;5.60;99.90;;;;;;5056646;28;20171;-78
2021/11/05 06:39:56;;;;;;;16.00;14.40;;;5.60;99.90;;;;;;5056436;28;20181;-78
2021/11/05 06:42:23;;;;;;;15.70;14.10;;;5.60;99.90;;;;;;5055152;28;20188;-78
2021/11/05 06:44:50;;;;;;;16.77;13.47;;;5.60;99.90;;;;;;5056312;28;20172;-77
2021/11/05 06:47:16;;;;;;;15.47;13.63;;;5.70;99.90;;;;;;5035182;28;20173;-77
2021/11/05 06:49:42;;;;;;;17.43;14.17;;;5.80;99.90;;;;;;5055823;28;20223;-77
2021/11/05 06:52:08;;;;;;;15.30;13.70;;;5.80;99.90;;;;;;5057385;28;20655;-78
2021/11/05 06:54:35;;;;;;;15.27;13.70;;;5.80;99.90;;;;;;5039283;28;20215;-77
2021/11/05 06:57:00;;;;;;;18.57;14.13;;;5.90;99.90;;;;;;5057411;28;20171;-78
2021/11/05 06:59:27;;;;;;;15.00;13.53;;;5.80;99.90;;;;;;5057196;28;20592;-78
2021/11/05 07:01:53;;;;;;;15.37;13.77;;;5.80;99.90;;;;;;5057326;28;20179;-78
2021/11/05 07:04:18;;;;;;;15.40;13.80;;;5.90;99.90;;;;;;5039370;28;20630;-78
2021/11/05 07:06:47;;;;;;;15.63;13.70;;;5.90;99.90;;;;;;5058054;28;20162;-78
2021/11/05 07:09:14;;;;;;;14.67;13.27;;;5.90;99.90;;;;;;5057797;28;20204;-78
2021/11/05 07:11:41;;;;;;;15.87;13.03;;;5.90;99.90;;;;;;5040245;28;20176;-78
2021/11/05 07:14:07;;;;;;;16.37;14.67;;;5.90;99.90;;;;;;5057966;28;20193;-78
2021/11/05 07:16:33;;;;;;;15.30;13.67;;;5.90;99.90;;;;;;5039290;28;20174;-78
2021/11/05 07:19:00;;;;;;;17.90;15.27;;;6.00;99.90;;;;;;5039718;28;20212;-78
2021/11/05 07:21:26;;;;;;;16.03;14.13;;;6.00;99.90;;;;;;5057966;28;20177;-78
2021/11/05 07:23:51;;;;;;;17.80;14.40;;;6.10;99.90;;;;;;5056955;28;20197;-78
2021/11/05 07:26:17;;;;;;;18.23;14.97;;;6.00;99.90;;;;;;5039979;28;20241;-78
2021/11/05 07:28:43;;;;;;;18.37;16.40;;;6.00;99.90;;;;;;5038668;28;20188;-78
2021/11/05 07:31:09;;;;;;;16.13;14.63;;;6.10;99.90;;;;;;5058084;28;20177;-78
2021/11/05 07:33:35;;;;;;;17.40;14.57;;;6.00;99.90;;;;;;5040981;28;20191;-78
2021/11/05 07:36:01;;;;;;;15.03;13.33;;;6.10;99.90;;;;;;5057801;28;20225;-78
2021/11/05 07:38:26;;;;;;;13.37;12.07;;;6.10;99.90;;;;;;5040575;28;20218;-78
2021/11/05 07:40:52;;;;;;;13.80;12.40;;;6.20;99.90;;;;;;5040269;28;20526;-79
2021/11/05 07:43:18;;;;;;;13.73;12.53;;;6.20;99.90;;;;;;5058025;28;20206;-79
2021/11/05 07:45:43;;;;;;;13.10;11.80;;;6.20;99.90;;;;;;5040746;28;20180;-78
2021/11/05 07:48:09;;;;;;;13.30;12.03;;;6.20;99.90;;;;;;5057677;28;20189;-78
2021/11/05 07:50:35;;;;;;;13.97;11.90;;;6.20;99.90;;;;;;5057852;28;20228;-78
2021/11/05 07:53:02;;;;;;;13.13;11.93;;;6.20;99.90;;;;;;5039950;28;20244;-78
2021/11/05 07:55:29;;;;;;;15.03;12.40;;;6.30;99.90;;;;;;5039509;28;20171;-78
2021/11/05 07:57:56;;;;;;;12.67;11.37;;;6.20;99.90;;;;;;5057474;28;20666;-78
2021/11/05 08:00:22;;;;;;;13.23;11.80;;;6.30;99.90;;;;;;5039981;28;20227;-78
2021/11/05 08:02:47;;;;;;;13.20;11.83;;;6.30;99.90;;;;;;5057695;28;20604;-79
2021/11/05 08:05:13;;;;;;;12.53;11.23;;;6.30;99.90;;;;;;5057957;28;20579;-79
2021/11/05 08:07:40;;;;;;;11.70;10.70;;;6.40;99.90;;;;;;5061329;28;20177;-79
2021/11/05 08:10:07;;;;;;;13.13;11.30;;;6.40;99.90;;;;;;5057476;28;20197;-78
2021/11/05 08:12:33;;;;;;;12.70;11.53;;;6.40;99.90;;;;;;5065900;28;20191;-79
2021/11/05 08:15:00;;;;;;;12.83;11.63;;;6.40;99.90;;;;;;5043480;28;20164;-79
2021/11/05 08:17:26;;;;;;;12.60;11.43;;;6.40;99.90;;;;;;5039631;28;20199;-78
2021/11/05 08:19:51;;;;;;;13.37;12.07;;;6.40;99.90;;;;;;5039460;28;20173;-78
2021/11/05 08:22:17;;;;;;;11.70;10.63;;;6.40;99.90;;;;;;5057779;28;20200;-78
2021/11/05 08:24:43;;;;;;;12.97;11.80;;;6.40;99.90;;;;;;5061524;28;20250;-79
2021/11/05 08:27:09;;;;;;;13.13;11.87;;;6.50;99.90;;;;;;5057009;28;20173;-78
2021/11/05 08:29:35;;;;;;;12.30;11.10;;;6.40;99.90;;;;;;5039690;28;20197;-78
2021/11/05 08:32:00;;;;;;;12.63;11.40;;;6.60;99.90;;;;;;5039525;28;20261;-78
2021/11/05 08:34:26;;;;;;;12.27;11.07;;;6.50;99.90;;;;;;5056792;28;20195;-78
2021/11/05 08:36:52;;;;;;;12.30;10.40;;;6.50;99.90;;;;;;5057129;28;20189;-78
2021/11/05 08:39:18;;;;;;;11.67;10.40;;;6.60;99.90;;;;;;5039612;28;20181;-78
2021/11/05 08:41:43;;;;;;;11.67;10.33;;;6.60;99.90;;;;;;5060951;22;20624;-80
2021/11/05 08:44:10;;;;;;;11.10;10.00;;;6.60;99.90;;;;;;5034665;28;20180;-79
2021/11/05 08:46:38;;;;;;;10.67;9.77;;;6.70;99.90;;;;;;5034531;28;20717;-79
2021/11/05 08:49:15;;;;;;;10.97;9.83;;;6.60;99.90;;;;;;5034573;28;20200;-80
2021/11/05 08:51:44;;;;;;;11.50;10.40;;;6.60;99.90;;;;;;5034309;28;20202;-80
2021/11/05 08:54:11;;;;;;;9.97;9.07;;;6.60;99.90;;;;;;5034457;28;20629;-80
2021/11/05 08:56:37;;;;;;;9.40;8.60;;;6.70;99.90;;;;;;5034185;28;20175;-80
2021/11/05 08:59:03;;;;;;;9.47;8.63;;;6.80;99.90;;;;;;5034024;28;20178;-80
2021/11/05 09:01:29;;;;;;;10.03;9.10;;;6.80;99.90;;;;;;5016391;28;20202;-81
2021/11/05 09:03:55;;;;;;;10.50;9.50;;;6.80;99.90;;;;;;5020213;28;20678;-79
2021/11/05 09:06:21;;;;;;;10.17;9.27;;;6.80;99.90;;;;;;5034278;28;20205;-80
2021/11/05 09:08:49;;;;;;;10.27;9.27;;;6.80;99.90;;;;;;5034636;28;20202;-81
2021/11/05 09:11:15;;;;;;;10.13;9.30;;;6.90;99.90;;;;;;5016490;28;20197;-81
2021/11/05 09:13:40;;;;;;;10.00;9.10;;;6.90;99.90;;;;;;5034623;28;20667;-80
2021/11/05 09:16:06;;;;;;;8.47;7.67;;;7.00;99.90;;;;;;5017269;28;20175;-81
2021/11/05 09:18:33;;;;;;;8.43;7.73;;;7.10;99.90;;;;;;5034047;28;20189;-81
2021/11/05 09:21:00;;;;;;;8.93;8.13;;;7.10;99.90;;;;;;5016661;28;20174;-81
2021/11/05 09:23:26;;;;;;;9.17;8.20;;;7.10;99.90;;;;;;5033837;28;20173;-81
2021/11/05 09:25:53;;;;;;;9.07;8.37;;;7.10;99.90;;;;;;5033820;28;20193;-80
2021/11/05 09:28:18;;;;;;;9.57;8.20;;;7.10;99.90;;;;;;5034039;28;20658;-79
2021/11/05 09:30:44;;;;;;;8.23;7.63;;;7.10;99.90;;;;;;5029136;28;20172;-81
2021/11/05 09:33:10;;;;;;;7.80;7.20;;;7.20;99.90;;;;;;5021744;28;20208;-81
2021/11/05 09:35:36;;;;;;;7.97;7.27;;;7.20;99.90;;;;;;5025636;28;20166;-81
2021/11/05 09:38:02;;;;;;;7.87;7.20;;;7.20;99.90;;;;;;5035131;28;20198;-81
2021/11/05 09:40:29;;;;;;;8.07;7.37;;;7.20;99.90;;;;;;5000361;28;20175;-81
2021/11/05 09:42:56;;;;;;;8.10;7.30;;;7.30;99.90;;;;;;4998585;28;20586;-81
2021/11/05 09:45:24;;;;;;;7.43;6.80;;;7.40;99.90;;;;;;5016580;28;20615;-81
2021/11/05 09:47:50;;;;;;;7.27;6.63;;;7.50;99.90;;;;;;5023754;28;20177;-80
2021/11/05 09:50:22;;;;;;;7.13;6.50;;;7.40;99.90;;;;;;5015918;28;20261;-81
2021/11/05 09:52:48;;;;;;;7.37;6.67;;;7.40;99.90;;;;;;5015751;28;20201;-81
2021/11/05 09:55:16;;;;;;;8.27;7.47;;;7.50;99.90;;;;;;4998506;28;20171;-81
2021/11/05 09:57:41;;;;;;;10.17;7.93;;;7.50;99.90;;;;;;5015726;28;20198;-80
2021/11/05 10:00:10;;;;;;;7.43;6.73;;;7.50;99.90;;;;;;4998439;28;20700;-81
2021/11/05 10:02:36;;;;;;;6.50;6.00;;;7.60;99.90;;;;;;5015803;28;20237;-81
2021/11/05 10:05:04;;;;;;;11.67;8.40;;;7.70;99.90;;;;;;4998070;28;20634;-81
2021/11/05 10:07:29;;;;;;;5.90;5.40;;;7.70;99.90;;;;;;4998536;28;20646;-81
2021/11/05 10:09:57;;;;;;;6.43;5.93;;;7.70;99.90;;;;;;4997971;28;20274;-81
2021/11/05 10:12:25;;;;;;;6.73;6.17;;;7.80;99.90;;;;;;5016047;28;20202;-81
2021/11/05 10:14:57;;;;;;;6.10;5.43;;;7.90;99.90;;;;;;5015763;28;20171;-81
2021/11/05 10:17:23;;;;;;;5.63;5.20;;;8.00;99.90;;;;;;5021470;28;20269;-81
2021/11/05 10:19:58;;;;;;;5.67;5.10;;;8.00;99.90;;;;;;5035022;28;20634;-81
2021/11/05 10:22:42;;;;;;;4.53;4.23;;;8.00;99.90;;;;;;5034751;28;20190;-80
2021/11/05 10:25:26;;;;;;;5.00;3.57;;;8.00;99.90;;;;;;5034676;28;20170;-80
2021/11/05 10:28:08;;;;;;;4.47;4.10;;;8.10;99.90;;;;;;5034831;28;20257;-79
2021/11/05 10:30:57;;;;;;;3.80;3.50;;;8.20;99.90;;;;;;5034638;28;20636;-81
2021/11/05 10:33:28;;;;;;;4.00;3.60;;;8.30;99.90;;;;;;5016093;28;20281;-81
2021/11/05 10:35:54;;;;;;;3.03;2.83;;;8.40;99.90;;;;;;5035003;28;20642;-81
2021/11/05 10:38:20;;;;;;;1.73;1.63;;;8.50;99.90;;;;;;5034951;28;20174;-81
2021/11/05 10:40:53;;;;;;;1.00;0.90;;;8.50;99.90;;;;;;5034466;28;20541;-81
2021/11/05 10:43:43;;;;;;;1.70;1.60;;;8.60;99.90;;;;;;5031520;28;20252;-81
2021/11/05 10:46:29;;;;;;;2.63;2.30;;;8.60;99.90;;;;;;5016539;28;20181;-81
2021/11/05 10:48:59;;;;;;;2.90;2.20;;;8.50;99.90;;;;;;5016054;28;20216;-81
2021/11/05 10:51:26;;;;;;;2.20;2.10;;;8.40;99.90;;;;;;5016151;28;20200;-80
2021/11/05 10:53:52;;;;;;;2.00;1.90;;;8.50;99.90;;;;;;5035820;28;20278;-79
2021/11/05 10:56:21;;;;;;;2.87;1.60;;;8.50;99.90;;;;;;5017172;28;20242;-81
2021/11/05 10:58:50;;;;;;;2.53;2.03;;;8.50;99.90;;;;;;5017113;28;20183;-80
2021/11/05 11:01:19;;;;;;;2.27;2.07;;;8.50;99.90;;;;;;5033731;28;20210;-81
2021/11/05 11:03:59;;;;;;;1.90;1.80;;;8.50;99.90;;;;;;5016998;28;20225;-80
2021/11/05 11:06:30;;;;;;;2.37;1.90;;;8.50;99.90;;;;;;5019789;28;20236;-80
2021/11/05 11:09:04;;;;;;;2.80;2.10;;;8.50;99.90;;;;;;5019837;28;20197;-80
2021/11/05 11:11:35;;;;;;;2.30;2.10;;;8.50;99.90;;;;;;5019815;28;20205;-81
2021/11/05 11:14:05;;;;;;;3.60;2.43;;;8.50;99.90;;;;;;5037587;28;20170;-81
2021/11/05 11:16:32;;;;;;;2.10;1.97;;;8.50;99.90;;;;;;5019416;28;20174;-81
2021/11/05 11:19:10;;;;;;;2.63;2.43;;;8.50;99.90;;;;;;5019224;28;20184;-81
2021/11/05 11:21:47;;;;;;;2.60;2.40;;;8.60;99.90;;;;;;5019208;28;20290;-80
2021/11/05 11:24:16;;;;;;;2.83;2.30;;;8.70;99.90;;;;;;5018573;28;20178;-80
2021/11/05 11:26:44;;;;;;;2.40;2.20;;;8.60;99.90;;;;;;5018243;28;20228;-80
2021/11/05 11:29:11;;;;;;;5.13;2.50;;;8.70;99.90;;;;;;5017976;28;20206;-79
2021/11/05 11:31:38;;;;;;;2.43;2.23;;;8.70;99.90;;;;;;5017892;28;20256;-79
2021/11/05 11:34:06;;;;;;;2.50;2.30;;;8.70;99.90;;;;;;5018390;28;20185;-80
2021/11/05 11:36:41;;;;;;;2.10;2.00;;;8.70;99.90;;;;;;5018307;28;20178;-80
2021/11/05 11:39:18;;;;;;;2.43;2.23;;;8.80;99.90;;;;;;5014317;28;20764;-79
2021/11/05 11:41:45;;;;;;;2.63;2.20;;;8.70;99.90;;;;;;5017916;28;20222;-80
2021/11/05 11:44:14;;;;;;;2.47;2.27;;;8.80;99.90;;;;;;5018024;28;20190;-80
2021/11/05 11:47:07;;;;;;;2.30;2.10;;;8.80;99.90;;;;;;5018083;28;20187;-80
2021/11/05 11:49:38;;;;;;;3.67;2.10;;;8.80;99.90;;;;;;5017429;28;20201;-81
2021/11/05 11:52:06;;;;;;;2.80;2.60;;;8.80;99.90;;;;;;5017985;28;20206;-80
2021/11/05 11:54:36;;;;;;;2.90;2.70;;;8.80;99.90;;;;;;5017895;28;20248;-79
2021/11/05 11:57:22;;;;;;;2.80;2.47;;;8.80;99.90;;;;;;5017664;28;20178;-79
2021/11/05 12:00:06;;;;;;;2.77;2.57;;;8.80;99.90;;;;;;5017781;28;20598;-80
2021/11/05 12:02:35;;;;;;;3.00;2.80;;;8.70;99.90;;;;;;5017954;28;20692;-80
2021/11/05 12:05:25;;;;;;;2.27;2.07;;;8.70;99.90;;;;;;5017892;28;20177;-81
2021/11/05 12:08:14;;;;;;;2.90;2.40;;;8.70;99.90;;;;;;5017740;28;20180;-81
2021/11/05 12:11:04;;;;;;;2.23;2.03;;;8.60;99.90;;;;;;5017445;28;20240;-80
2021/11/05 12:13:33;;;;;;;2.80;2.10;;;8.60;99.90;;;;;;4992633;28;20677;-80
2021/11/05 12:16:24;;;;;;;2.33;1.90;;;8.60;99.90;;;;;;5017170;28;20197;-80
2021/11/05 12:21:27;;;;;;;2.43;2.23;;;8.60;99.90;;;;;;5035104;28;20232;-80
2021/11/05 12:24:19;;;;;;;2.83;2.57;;;8.60;99.90;;;;;;5016119;28;20183;-80
2021/11/05 12:26:48;;;;;;;2.30;2.10;;;8.70;99.90;;;;;;5016865;28;20266;-80
2021/11/05 12:29:32;;;;;;;2.40;2.20;;;8.70;99.90;;;;;;5016758;28;20202;-80
2021/11/05 12:32:22;;;;;;;2.47;2.27;;;8.60;99.90;;;;;;5016801;28;20221;-79
2021/11/05 12:34:57;;;;;;;2.93;2.63;;;8.60;99.90;;;;;;5016934;28;20174;-79
2021/11/05 12:37:36;;;;;;;2.10;2.00;;;8.60;99.90;;;;;;5016788;28;20174;-80
2021/11/05 12:40:21;;;;;;;3.37;3.10;;;8.50;99.90;;;;;;5016945;28;20189;-80
2021/11/05 12:42:51;;;;;;;2.60;2.10;;;8.50;99.90;;;;;;5016619;28;20711;-80
2021/11/05 12:45:19;;;;;;;2.03;1.70;;;8.60;99.90;;;;;;5016767;28;20182;-80
2021/11/05 12:47:47;;;;;;;2.03;1.60;;;8.50;99.90;;;;;;5016184;28;20175;-81
2021/11/05 12:50:18;;;;;;;1.87;1.63;;;8.50;99.90;;;;;;5010134;28;20206;-80